sim
Sign-in with your pilot id or email,
or register
Callsign
Passwort

Schedule Details

Flight Number: OEO4047
Departure: Nice Cote d'Azur Airport (LFMN) at 16:05
Arrival: Munich Airport (EDDM) at 17:30

Weather Information
Getting current METAR information for LFMN 282230Z 33007KT CAVOK 15/09 Q1013 NOSIG
Getting current METAR information for EDDM 282250Z 09002KT 9999 SCT048 08/07 Q1016 NOSIG

Schedule Frequency

Route Map